sensor_id;sensor_type;location;lat;lon;timestamp;pressure;altitude;pressure_sealevel;temperature;humidity
38616;BME280;24370;51.986;4.666;2023-08-21T00:01:12;102404.50;;;28.05;45.77
38616;BME280;24370;51.986;4.666;2023-08-21T00:03:37;102404.69;;;28.32;44.89
38616;BME280;24370;51.986;4.666;2023-08-21T00:06:02;102406.50;;;28.01;45.79
38616;BME280;24370;51.986;4.666;2023-08-21T00:08:28;102392.81;;;28.06;46.06
38616;BME280;24370;51.986;4.666;2023-08-21T00:10:53;102401.63;;;28.08;45.67
38616;BME280;24370;51.986;4.666;2023-08-21T00:13:19;102408.00;;;28.21;45.52
38616;BME280;24370;51.986;4.666;2023-08-21T00:15:44;102397.66;;;28.30;45.40
38616;BME280;24370;51.986;4.666;2023-08-21T00:18:10;102398.72;;;28.27;46.06
38616;BME280;24370;51.986;4.666;2023-08-21T00:20:35;102402.94;;;28.17;46.18
38616;BME280;24370;51.986;4.666;2023-08-21T00:23:00;102402.03;;;28.16;46.15
38616;BME280;24370;51.986;4.666;2023-08-21T00:25:26;102407.25;;;28.34;45.49
38616;BME280;24370;51.986;4.666;2023-08-21T00:27:51;102410.06;;;28.02;46.22
38616;BME280;24370;51.986;4.666;2023-08-21T00:30:17;102399.84;;;27.92;46.17
38616;BME280;24370;51.986;4.666;2023-08-21T00:32:42;102403.78;;;27.71;46.66
38616;BME280;24370;51.986;4.666;2023-08-21T00:35:08;102402.50;;;27.78;46.37
38616;BME280;24370;51.986;4.666;2023-08-21T00:37:33;102407.25;;;27.73;46.68
38616;BME280;24370;51.986;4.666;2023-08-21T00:39:59;102406.72;;;27.82;46.16
38616;BME280;24370;51.986;4.666;2023-08-21T00:42:24;102390.63;;;27.66;46.59
38616;BME280;24370;51.986;4.666;2023-08-21T00:44:49;102393.53;;;27.77;46.26
38616;BME280;24370;51.986;4.666;2023-08-21T00:47:15;102394.44;;;27.78;46.17
38616;BME280;24370;51.986;4.666;2023-08-21T00:49:41;102389.06;;;27.62;46.19
38616;BME280;24370;51.986;4.666;2023-08-21T00:52:08;102387.63;;;27.56;46.00
38616;BME280;24370;51.986;4.666;2023-08-21T00:54:36;102396.97;;;27.96;45.66
38616;BME280;24370;51.986;4.666;2023-08-21T00:57:01;102393.72;;;27.90;45.98
38616;BME280;24370;51.986;4.666;2023-08-21T00:59:28;102392.31;;;27.83;45.96
38616;BME280;24370;51.986;4.666;2023-08-21T01:01:54;102391.78;;;28.08;44.82
38616;BME280;24370;51.986;4.666;2023-08-21T01:04:19;102393.09;;;27.85;46.23
38616;BME280;24370;51.986;4.666;2023-08-21T01:06:47;102388.56;;;27.55;46.85
38616;BME280;24370;51.986;4.666;2023-08-21T01:09:30;102388.94;;;27.49;46.89
38616;BME280;24370;51.986;4.666;2023-08-21T01:12:23;102386.81;;;27.54;46.88
38616;BME280;24370;51.986;4.666;2023-08-21T01:17:19;102398.13;;;27.45;46.71
38616;BME280;24370;51.986;4.666;2023-08-21T01:19:47;102390.78;;;27.31;46.41
38616;BME280;24370;51.986;4.666;2023-08-21T01:22:13;102399.13;;;27.26;47.11
38616;BME280;24370;51.986;4.666;2023-08-21T01:24:38;102393.41;;;27.33;46.83
38616;BME280;24370;51.986;4.666;2023-08-21T01:27:04;102394.88;;;27.22;47.01
38616;BME280;24370;51.986;4.666;2023-08-21T01:29:30;102396.34;;;27.12;47.49
38616;BME280;24370;51.986;4.666;2023-08-21T01:34:28;102398.06;;;27.13;47.73
38616;BME280;24370;51.986;4.666;2023-08-21T01:36:56;102402.69;;;27.43;46.67
38616;BME280;24370;51.986;4.666;2023-08-21T01:39:22;102402.09;;;27.38;46.82
38616;BME280;24370;51.986;4.666;2023-08-21T01:41:48;102404.94;;;27.51;46.13
38616;BME280;24370;51.986;4.666;2023-08-21T01:44:13;102402.03;;;27.86;45.45
38616;BME280;24370;51.986;4.666;2023-08-21T01:46:39;102404.72;;;28.02;44.86
38616;BME280;24370;51.986;4.666;2023-08-21T01:49:05;102412.66;;;27.41;46.13
38616;BME280;24370;51.986;4.666;2023-08-21T01:51:30;102407.59;;;27.35;46.45
38616;BME280;24370;51.986;4.666;2023-08-21T01:53:55;102409.19;;;27.39;46.33
38616;BME280;24370;51.986;4.666;2023-08-21T01:56:21;102401.28;;;27.20;47.05
38616;BME280;24370;51.986;4.666;2023-08-21T01:58:46;102407.59;;;27.35;46.89
38616;BME280;24370;51.986;4.666;2023-08-21T02:01:12;102403.09;;;27.35;46.74
38616;BME280;24370;51.986;4.666;2023-08-21T02:03:37;102398.25;;;27.10;47.05
38616;BME280;24370;51.986;4.666;2023-08-21T02:06:02;102402.91;;;27.22;46.96
38616;BME280;24370;51.986;4.666;2023-08-21T02:08:31;102397.81;;;27.18;46.29
38616;BME280;24370;51.986;4.666;2023-08-21T02:11:00;102399.72;;;27.32;46.36
38616;BME280;24370;51.986;4.666;2023-08-21T02:13:25;102403.53;;;27.43;46.03
38616;BME280;24370;51.986;4.666;2023-08-21T02:15:51;102397.56;;;27.22;46.91
38616;BME280;24370;51.986;4.666;2023-08-21T02:18:16;102401.47;;;27.49;46.47
38616;BME280;24370;51.986;4.666;2023-08-21T02:20:42;102406.22;;;27.28;46.51
38616;BME280;24370;51.986;4.666;2023-08-21T02:23:07;102400.81;;;27.45;45.87
38616;BME280;24370;51.986;4.666;2023-08-21T02:25:33;102398.63;;;27.36;46.48
38616;BME280;24370;51.986;4.666;2023-08-21T02:27:58;102395.13;;;27.02;47.38
38616;BME280;24370;51.986;4.666;2023-08-21T02:30:24;102395.50;;;27.28;46.76
38616;BME280;24370;51.986;4.666;2023-08-21T02:32:53;102405.63;;;27.54;45.89
38616;BME280;24370;51.986;4.666;2023-08-21T02:35:20;102395.50;;;27.28;46.66
38616;BME280;24370;51.986;4.666;2023-08-21T02:37:45;102402.41;;;27.48;46.71
38616;BME280;24370;51.986;4.666;2023-08-21T02:40:11;102399.13;;;27.26;46.74
38616;BME280;24370;51.986;4.666;2023-08-21T02:42:36;102394.44;;;27.14;47.02
38616;BME280;24370;51.986;4.666;2023-08-21T02:45:02;102397.13;;;27.46;46.31
38616;BME280;24370;51.986;4.666;2023-08-21T02:47:36;102392.09;;;27.56;45.68
38616;BME280;24370;51.986;4.666;2023-08-21T02:50:06;102389.69;;;27.51;45.78
38616;BME280;24370;51.986;4.666;2023-08-21T02:52:33;102398.25;;;27.58;46.02
38616;BME280;24370;51.986;4.666;2023-08-21T02:54:58;102391.16;;;27.57;45.82
38616;BME280;24370;51.986;4.666;2023-08-21T02:57:25;102398.66;;;27.82;44.69
38616;BME280;24370;51.986;4.666;2023-08-21T02:59:50;102397.03;;;27.32;46.67
38616;BME280;24370;51.986;4.666;2023-08-21T03:02:16;102395.78;;;26.89;47.39
38616;BME280;24370;51.986;4.666;2023-08-21T03:04:42;102386.81;;;26.90;47.42
38616;BME280;24370;51.986;4.666;2023-08-21T03:07:07;102386.75;;;27.08;46.58
38616;BME280;24370;51.986;4.666;2023-08-21T03:09:32;102391.13;;;27.09;46.93
38616;BME280;24370;51.986;4.666;2023-08-21T03:11:58;102393.94;;;27.23;46.63
38616;BME280;24370;51.986;4.666;2023-08-21T03:14:26;102392.44;;;27.02;46.82
38616;BME280;24370;51.986;4.666;2023-08-21T03:16:51;102393.03;;;26.75;47.11
38616;BME280;24370;51.986;4.666;2023-08-21T03:19:17;102387.94;;;27.18;46.17
38616;BME280;24370;51.986;4.666;2023-08-21T03:21:42;102392.34;;;26.87;47.17
38616;BME280;24370;51.986;4.666;2023-08-21T03:24:08;102387.66;;;26.91;47.07
38616;BME280;24370;51.986;4.666;2023-08-21T03:26:33;102383.69;;;26.82;47.50
38616;BME280;24370;51.986;4.666;2023-08-21T03:28:58;102376.25;;;27.19;46.42
38616;BME280;24370;51.986;4.666;2023-08-21T03:31:24;102389.38;;;26.76;47.26
38616;BME280;24370;51.986;4.666;2023-08-21T03:33:49;102380.84;;;26.68;47.75
38616;BME280;24370;51.986;4.666;2023-08-21T03:36:15;102389.03;;;26.82;47.37
38616;BME280;24370;51.986;4.666;2023-08-21T03:38:40;102389.22;;;26.62;47.84
38616;BME280;24370;51.986;4.666;2023-08-21T03:41:05;102375.81;;;26.62;48.30
38616;BME280;24370;51.986;4.666;2023-08-21T03:43:32;102385.81;;;26.58;48.63
38616;BME280;24370;51.986;4.666;2023-08-21T03:45:57;102388.13;;;26.66;48.16
38616;BME280;24370;51.986;4.666;2023-08-21T03:48:23;102387.22;;;26.65;48.30
38616;BME280;24370;51.986;4.666;2023-08-21T03:50:49;102397.75;;;26.52;48.45
38616;BME280;24370;51.986;4.666;2023-08-21T03:53:15;102394.97;;;26.54;48.59
38616;BME280;24370;51.986;4.666;2023-08-21T03:55:40;102387.78;;;26.72;48.23
38616;BME280;24370;51.986;4.666;2023-08-21T03:58:06;102393.97;;;26.56;48.70
38616;BME280;24370;51.986;4.666;2023-08-21T04:00:31;102392.22;;;26.73;48.14
38616;BME280;24370;51.986;4.666;2023-08-21T04:02:57;102393.28;;;26.86;47.66
38616;BME280;24370;51.986;4.666;2023-08-21T04:05:23;102386.53;;;26.62;48.64
38616;BME280;24370;51.986;4.666;2023-08-21T04:07:49;102386.09;;;26.71;48.34
38616;BME280;24370;51.986;4.666;2023-08-21T04:10:14;102391.13;;;27.09;47.14
38616;BME280;24370;51.986;4.666;2023-08-21T04:12:41;102385.19;;;26.70;49.03
38616;BME280;24370;51.986;4.666;2023-08-21T04:15:07;102391.66;;;27.00;48.20
38616;BME280;24370;51.986;4.666;2023-08-21T04:17:33;102391.47;;;27.19;47.91
38616;BME280;24370;51.986;4.666;2023-08-21T04:19:58;102386.31;;;27.32;47.23
38616;BME280;24370;51.986;4.666;2023-08-21T04:22:24;102389.78;;;27.50;47.36
38616;BME280;24370;51.986;4.666;2023-08-21T04:24:49;102394.81;;;27.40;47.45
38616;BME280;24370;51.986;4.666;2023-08-21T04:27:14;102386.69;;;27.41;47.21
38616;BME280;24370;51.986;4.666;2023-08-21T04:29:40;102392.03;;;27.57;47.18
38616;BME280;24370;51.986;4.666;2023-08-21T04:32:05;102402.16;;;27.36;47.02
38616;BME280;24370;51.986;4.666;2023-08-21T04:34:37;102386.50;;;27.29;47.37
38616;BME280;24370;51.986;4.666;2023-08-21T04:37:03;102397.38;;;27.09;47.44
38616;BME280;24370;51.986;4.666;2023-08-21T04:39:29;102396.69;;;27.06;47.58
38616;BME280;24370;51.986;4.666;2023-08-21T04:41:55;102401.75;;;26.79;48.29
38616;BME280;24370;51.986;4.666;2023-08-21T04:44:20;102400.97;;;26.92;47.97
38616;BME280;24370;51.986;4.666;2023-08-21T04:46:48;102406.56;;;26.72;48.09
38616;BME280;24370;51.986;4.666;2023-08-21T04:49:13;102410.84;;;26.92;47.69
38616;BME280;24370;51.986;4.666;2023-08-21T04:51:39;102410.69;;;26.79;48.60
38616;BME280;24370;51.986;4.666;2023-08-21T04:54:04;102417.16;;;26.75;48.40
38616;BME280;24370;51.986;4.666;2023-08-21T04:56:30;102413.06;;;26.50;49.58
38616;BME280;24370;51.986;4.666;2023-08-21T04:58:55;102410.94;;;26.90;48.16
38616;BME280;24370;51.986;4.666;2023-08-21T05:01:20;102411.41;;;26.99;48.12
38616;BME280;24370;51.986;4.666;2023-08-21T05:03:46;102406.56;;;27.05;47.63
38616;BME280;24370;51.986;4.666;2023-08-21T05:06:11;102416.59;;;27.02;47.80
38616;BME280;24370;51.986;4.666;2023-08-21T05:08:37;102413.63;;;26.90;48.08
38616;BME280;24370;51.986;4.666;2023-08-21T05:11:02;102409.09;;;26.75;48.54
38616;BME280;24370;51.986;4.666;2023-08-21T05:13:28;102416.53;;;26.70;48.33
38616;BME280;24370;51.986;4.666;2023-08-21T05:15:57;102416.63;;;26.84;48.15
38616;BME280;24370;51.986;4.666;2023-08-21T05:18:24;102419.31;;;26.84;48.17
38616;BME280;24370;51.986;4.666;2023-08-21T05:20:50;102412.97;;;27.03;47.96
38616;BME280;24370;51.986;4.666;2023-08-21T05:23:16;102411.91;;;27.21;47.19
38616;BME280;24370;51.986;4.666;2023-08-21T05:25:43;102423.47;;;26.74;48.27
38616;BME280;24370;51.986;4.666;2023-08-21T05:28:09;102423.63;;;26.71;48.75
38616;BME280;24370;51.986;4.666;2023-08-21T05:30:37;102419.34;;;26.67;48.85
38616;BME280;24370;51.986;4.666;2023-08-21T05:33:03;102423.34;;;27.09;47.95
38616;BME280;24370;51.986;4.666;2023-08-21T05:35:35;102428.47;;;26.80;49.00
38616;BME280;24370;51.986;4.666;2023-08-21T05:38:02;102417.25;;;26.89;48.74
38616;BME280;24370;51.986;4.666;2023-08-21T05:40:28;102419.16;;;26.87;48.74
38616;BME280;24370;51.986;4.666;2023-08-21T05:42:53;102420.91;;;27.04;48.38
38616;BME280;24370;51.986;4.666;2023-08-21T05:45:19;102424.41;;;27.22;47.78
38616;BME280;24370;51.986;4.666;2023-08-21T05:47:44;102415.56;;;27.20;47.89
38616;BME280;24370;51.986;4.666;2023-08-21T05:50:09;102418.69;;;27.29;47.88
38616;BME280;24370;51.986;4.666;2023-08-21T05:52:35;102419.28;;;27.34;47.57
38616;BME280;24370;51.986;4.666;2023-08-21T05:55:01;102419.22;;;27.19;48.23
38616;BME280;24370;51.986;4.666;2023-08-21T05:57:26;102421.16;;;27.49;47.27
38616;BME280;24370;51.986;4.666;2023-08-21T05:59:52;102414.22;;;27.45;47.87
38616;BME280;24370;51.986;4.666;2023-08-21T06:02:17;102421.66;;;27.40;48.03
38616;BME280;24370;51.986;4.666;2023-08-21T06:04:43;102425.13;;;27.74;47.37
38616;BME280;24370;51.986;4.666;2023-08-21T06:07:09;102425.97;;;27.58;47.90
38616;BME280;24370;51.986;4.666;2023-08-21T06:09:37;102425.13;;;27.74;47.88
38616;BME280;24370;51.986;4.666;2023-08-21T06:12:03;102425.34;;;27.85;47.99
38616;BME280;24370;51.986;4.666;2023-08-21T06:14:29;102423.00;;;27.79;47.84
38616;BME280;24370;51.986;4.666;2023-08-21T06:17:00;102426.47;;;27.81;47.37
38616;BME280;24370;51.986;4.666;2023-08-21T06:19:26;102431.31;;;27.90;47.53
38616;BME280;24370;51.986;4.666;2023-08-21T06:21:51;102434.53;;;27.81;47.33
38616;BME280;24370;51.986;4.666;2023-08-21T06:24:17;102432.13;;;27.61;47.88
38616;BME280;24370;51.986;4.666;2023-08-21T06:26:42;102434.72;;;27.46;48.31
38616;BME280;24370;51.986;4.666;2023-08-21T06:29:08;102438.63;;;27.56;48.39
38616;BME280;24370;51.986;4.666;2023-08-21T06:31:33;102436.03;;;27.39;48.86
38616;BME280;24370;51.986;4.666;2023-08-21T06:33:58;102435.69;;;27.61;48.17
38616;BME280;24370;51.986;4.666;2023-08-21T06:36:24;102441.78;;;27.95;47.27
38616;BME280;24370;51.986;4.666;2023-08-21T06:38:49;102433.59;;;27.82;47.85
38616;BME280;24370;51.986;4.666;2023-08-21T06:41:15;102436.75;;;28.05;47.51
38616;BME280;24370;51.986;4.666;2023-08-21T06:43:40;102430.72;;;27.85;47.29
38616;BME280;24370;51.986;4.666;2023-08-21T06:46:06;102437.03;;;28.00;47.53
38616;BME280;24370;51.986;4.666;2023-08-21T06:48:32;102437.91;;;28.01;47.43
38616;BME280;24370;51.986;4.666;2023-08-21T06:50:57;102440.06;;;28.24;46.80
38616;BME280;24370;51.986;4.666;2023-08-21T06:53:23;102436.25;;;28.29;47.19
38616;BME280;24370;51.986;4.666;2023-08-21T06:55:48;102435.16;;;28.61;46.22
38616;BME280;24370;51.986;4.666;2023-08-21T06:58:14;102428.66;;;28.66;46.08
38616;BME280;24370;51.986;4.666;2023-08-21T07:00:39;102436.81;;;28.64;46.18
38616;BME280;24370;51.986;4.666;2023-08-21T07:03:04;102442.88;;;28.68;46.32
38616;BME280;24370;51.986;4.666;2023-08-21T07:05:35;102443.47;;;28.42;46.52
38616;BME280;24370;51.986;4.666;2023-08-21T07:08:00;102458.34;;;28.34;46.92
38616;BME280;24370;51.986;4.666;2023-08-21T07:10:26;102444.09;;;28.17;47.03
38616;BME280;24370;51.986;4.666;2023-08-21T07:12:53;102446.34;;;28.25;46.79
38616;BME280;24370;51.986;4.666;2023-08-21T07:15:18;102446.53;;;28.67;46.14
38616;BME280;24370;51.986;4.666;2023-08-21T07:17:43;102449.81;;;29.01;45.70
38616;BME280;24370;51.986;4.666;2023-08-21T07:20:09;102445.00;;;29.35;45.11
38616;BME280;24370;51.986;4.666;2023-08-21T07:22:35;102458.22;;;29.79;44.14
38616;BME280;24370;51.986;4.666;2023-08-21T07:25:01;102448.06;;;32.12;40.73
38616;BME280;24370;51.986;4.666;2023-08-21T07:27:30;102453.91;;;33.00;38.39
38616;BME280;24370;51.986;4.666;2023-08-21T07:29:56;102456.72;;;33.76;37.11
38616;BME280;24370;51.986;4.666;2023-08-21T07:32:21;102459.28;;;34.73;34.61
38616;BME280;24370;51.986;4.666;2023-08-21T07:34:46;102454.88;;;35.83;33.10
38616;BME280;24370;51.986;4.666;2023-08-21T07:37:12;102454.53;;;36.45;33.33
38616;BME280;24370;51.986;4.666;2023-08-21T07:39:37;102461.28;;;37.44;30.34
38616;BME280;24370;51.986;4.666;2023-08-21T07:42:03;102463.56;;;36.93;31.57
38616;BME280;24370;51.986;4.666;2023-08-21T07:44:28;102465.53;;;36.53;30.61
38616;BME280;24370;51.986;4.666;2023-08-21T07:46:54;102465.03;;;37.43;30.56
38616;BME280;24370;51.986;4.666;2023-08-21T07:49:19;102464.88;;;37.98;29.75
38616;BME280;24370;51.986;4.666;2023-08-21T07:51:45;102466.25;;;37.21;29.75
38616;BME280;24370;51.986;4.666;2023-08-21T07:54:10;102464.19;;;36.77;30.59
38616;BME280;24370;51.986;4.666;2023-08-21T07:56:37;102468.00;;;36.56;30.98
38616;BME280;24370;51.986;4.666;2023-08-21T07:59:03;102465.13;;;37.51;29.50
38616;BME280;24370;51.986;4.666;2023-08-21T08:01:28;102474.34;;;38.57;28.63
38616;BME280;24370;51.986;4.666;2023-08-21T08:03:54;102485.47;;;38.63;29.00
38616;BME280;24370;51.986;4.666;2023-08-21T08:06:20;102487.97;;;38.75;28.08
38616;BME280;24370;51.986;4.666;2023-08-21T08:08:45;102489.53;;;34.90;32.58
38616;BME280;24370;51.986;4.666;2023-08-21T08:11:11;102478.34;;;36.43;31.40
38616;BME280;24370;51.986;4.666;2023-08-21T08:13:36;102471.41;;;37.69;29.97
38616;BME280;24370;51.986;4.666;2023-08-21T08:16:01;102465.19;;;39.00;28.93
38616;BME280;24370;51.986;4.666;2023-08-21T08:18:27;102469.22;;;38.88;27.90
38616;BME280;24370;51.986;4.666;2023-08-21T08:20:52;102459.31;;;38.26;28.75
38616;BME280;24370;51.986;4.666;2023-08-21T08:23:19;102464.78;;;38.79;28.96
38616;BME280;24370;51.986;4.666;2023-08-21T08:25:45;102467.50;;;38.26;28.68
38616;BME280;24370;51.986;4.666;2023-08-21T08:28:10;102471.66;;;38.91;29.10
38616;BME280;24370;51.986;4.666;2023-08-21T08:30:36;102476.34;;;38.02;28.93
38616;BME280;24370;51.986;4.666;2023-08-21T08:33:01;102481.16;;;37.72;29.23
38616;BME280;24370;51.986;4.666;2023-08-21T08:35:27;102473.78;;;36.33;30.77
38616;BME280;24370;51.986;4.666;2023-08-21T08:37:52;102474.91;;;36.21;31.72
38616;BME280;24370;51.986;4.666;2023-08-21T08:40:18;102466.50;;;38.09;29.93
38616;BME280;24370;51.986;4.666;2023-08-21T08:42:43;102462.69;;;37.48;29.73
38616;BME280;24370;51.986;4.666;2023-08-21T08:45:12;102463.16;;;37.97;30.14
38616;BME280;24370;51.986;4.666;2023-08-21T08:47:39;102455.63;;;37.91;29.78
38616;BME280;24370;51.986;4.666;2023-08-21T08:50:06;102472.63;;;38.82;28.90
38616;BME280;24370;51.986;4.666;2023-08-21T08:52:38;102458.13;;;39.16;28.89
38616;BME280;24370;51.986;4.666;2023-08-21T08:55:04;102466.88;;;37.60;29.30
38616;BME280;24370;51.986;4.666;2023-08-21T08:57:32;102479.72;;;38.66;28.89
38616;BME280;24370;51.986;4.666;2023-08-21T08:59:57;102463.56;;;40.81;25.94
38616;BME280;24370;51.986;4.666;2023-08-21T09:02:25;102465.38;;;39.99;26.34
38616;BME280;24370;51.986;4.666;2023-08-21T09:04:51;102468.16;;;38.73;27.72
38616;BME280;24370;51.986;4.666;2023-08-21T09:07:17;102466.88;;;37.60;28.88
38616;BME280;24370;51.986;4.666;2023-08-21T09:09:46;102469.63;;;40.51;26.83
38616;BME280;24370;51.986;4.666;2023-08-21T09:12:13;102460.63;;;39.77;26.43
38616;BME280;24370;51.986;4.666;2023-08-21T09:14:40;102462.63;;;40.41;26.68
38616;BME280;24370;51.986;4.666;2023-08-21T09:17:06;102466.94;;;37.96;28.29
38616;BME280;24370;51.986;4.666;2023-08-21T09:19:31;102469.88;;;38.74;26.78
38616;BME280;24370;51.986;4.666;2023-08-21T09:21:57;102452.34;;;39.44;26.48
38616;BME280;24370;51.986;4.666;2023-08-21T09:24:23;102465.31;;;39.33;26.60
38616;BME280;24370;51.986;4.666;2023-08-21T09:26:49;102463.91;;;40.69;24.98
38616;BME280;24370;51.986;4.666;2023-08-21T09:29:14;102469.00;;;42.36;23.36
38616;BME280;24370;51.986;4.666;2023-08-21T09:31:40;102458.16;;;40.48;24.75
38616;BME280;24370;51.986;4.666;2023-08-21T09:34:05;102453.34;;;39.34;27.43
38616;BME280;24370;51.986;4.666;2023-08-21T09:36:32;102465.38;;;38.38;27.81
38616;BME280;24370;51.986;4.666;2023-08-21T09:38:57;102456.63;;;37.90;28.79
38616;BME280;24370;51.986;4.666;2023-08-21T09:41:24;102454.03;;;38.07;27.67
38616;BME280;24370;51.986;4.666;2023-08-21T09:43:50;102454.31;;;37.31;29.03
38616;BME280;24370;51.986;4.666;2023-08-21T09:46:17;102454.16;;;36.00;30.18
38616;BME280;24370;51.986;4.666;2023-08-21T09:48:47;102449.72;;;35.60;30.93
38616;BME280;24370;51.986;4.666;2023-08-21T09:51:13;102448.72;;;36.00;29.81
38616;BME280;24370;51.986;4.666;2023-08-21T09:53:38;102446.84;;;36.01;30.98
38616;BME280;24370;51.986;4.666;2023-08-21T09:56:05;102443.25;;;36.20;29.36
38616;BME280;24370;51.986;4.666;2023-08-21T09:58:31;102447.84;;;35.00;31.09
38616;BME280;24370;51.986;4.666;2023-08-21T10:00:58;102449.72;;;35.80;30.40
38616;BME280;24370;51.986;4.666;2023-08-21T10:03:24;102446.50;;;32.90;34.14
38616;BME280;24370;51.986;4.666;2023-08-21T10:05:51;102446.09;;;33.52;33.90
38616;BME280;24370;51.986;4.666;2023-08-21T10:08:23;102447.75;;;33.09;34.56
38616;BME280;24370;51.986;4.666;2023-08-21T10:10:49;102449.09;;;33.81;32.99
38616;BME280;24370;51.986;4.666;2023-08-21T10:13:14;102451.78;;;32.69;34.24
38616;BME280;24370;51.986;4.666;2023-08-21T10:15:41;102442.53;;;33.51;31.88
38616;BME280;24370;51.986;4.666;2023-08-21T10:18:31;102451.38;;;34.18;32.05
38616;BME280;24370;51.986;4.666;2023-08-21T10:21:10;102453.34;;;34.16;31.33
38616;BME280;24370;51.986;4.666;2023-08-21T10:23:37;102450.72;;;32.83;31.95
38616;BME280;24370;51.986;4.666;2023-08-21T10:26:07;102448.91;;;34.15;31.65
38616;BME280;24370;51.986;4.666;2023-08-21T10:28:56;102449.50;;;33.54;32.70
38616;BME280;24370;51.986;4.666;2023-08-21T10:31:38;102461.31;;;32.97;32.35
38616;BME280;24370;51.986;4.666;2023-08-21T10:34:12;102442.75;;;33.48;31.68
38616;BME280;24370;51.986;4.666;2023-08-21T10:41:56;102438.16;;;32.93;31.01
38616;BME280;24370;51.986;4.666;2023-08-21T10:50:00;102437.47;;;33.90;30.05
38616;BME280;24370;51.986;4.666;2023-08-21T10:52:40;102436.34;;;33.49;31.36
38616;BME280;24370;51.986;4.666;2023-08-21T10:55:07;102439.69;;;33.85;31.37
38616;BME280;24370;51.986;4.666;2023-08-21T10:57:36;102440.69;;;33.73;30.95
38616;BME280;24370;51.986;4.666;2023-08-21T11:02:31;102430.84;;;33.83;30.97
38616;BME280;24370;51.986;4.666;2023-08-21T11:04:57;102433.00;;;32.79;30.89
38616;BME280;24370;51.986;4.666;2023-08-21T11:07:24;102421.97;;;33.48;31.55
38616;BME280;24370;51.986;4.666;2023-08-21T11:09:50;102423.19;;;33.88;29.37
38616;BME280;24370;51.986;4.666;2023-08-21T11:12:17;102432.84;;;33.26;29.56
38616;BME280;24370;51.986;4.666;2023-08-21T11:14:44;102430.44;;;33.44;29.69
38616;BME280;24370;51.986;4.666;2023-08-21T11:17:10;102429.25;;;33.37;29.26
38616;BME280;24370;51.986;4.666;2023-08-21T11:19:36;102439.06;;;34.14;28.30
38616;BME280;24370;51.986;4.666;2023-08-21T11:22:02;102448.69;;;33.74;30.06
38616;BME280;24370;51.986;4.666;2023-08-21T11:26:57;102438.63;;;32.98;28.49
38616;BME280;24370;51.986;4.666;2023-08-21T11:29:23;102433.69;;;33.15;29.92
38616;BME280;24370;51.986;4.666;2023-08-21T11:31:49;102424.34;;;32.62;30.03
38616;BME280;24370;51.986;4.666;2023-08-21T11:34:21;102431.19;;;34.11;28.81
38616;BME280;24370;51.986;4.666;2023-08-21T11:36:47;102434.19;;;32.52;30.87
38616;BME280;24370;51.986;4.666;2023-08-21T11:39:12;102429.28;;;33.03;31.02
38616;BME280;24370;51.986;4.666;2023-08-21T11:41:55;102438.50;;;33.78;28.37
38616;BME280;24370;51.986;4.666;2023-08-21T11:44:20;102434.56;;;34.24;27.61
38616;BME280;24370;51.986;4.666;2023-08-21T11:46:46;102430.44;;;33.44;28.96
38616;BME280;24370;51.986;4.666;2023-08-21T11:49:11;102425.69;;;33.80;29.37
38616;BME280;24370;51.986;4.666;2023-08-21T11:51:40;102428.00;;;34.06;29.91
38616;BME280;24370;51.986;4.666;2023-08-21T11:54:06;102424.97;;;33.67;30.07
38616;BME280;24370;51.986;4.666;2023-08-21T11:56:31;102420.16;;;34.45;28.66
38616;BME280;24370;51.986;4.666;2023-08-21T11:58:57;102422.78;;;34.14;28.51
38616;BME280;24370;51.986;4.666;2023-08-21T12:01:24;102412.75;;;34.05;29.00
38616;BME280;24370;51.986;4.666;2023-08-21T12:03:50;102405.81;;;35.05;28.77
38616;BME280;24370;51.986;4.666;2023-08-21T12:06:22;102415.16;;;33.87;28.40
38616;BME280;24370;51.986;4.666;2023-08-21T12:08:48;102419.25;;;33.81;28.65
38616;BME280;24370;51.986;4.666;2023-08-21T12:11:13;102410.91;;;34.88;26.43
38616;BME280;24370;51.986;4.666;2023-08-21T12:13:38;102405.91;;;35.34;26.16
38616;BME280;24370;51.986;4.666;2023-08-21T12:16:04;102414.41;;;34.17;27.70
38616;BME280;24370;51.986;4.666;2023-08-21T12:18:30;102415.97;;;34.72;25.68
38616;BME280;24370;51.986;4.666;2023-08-21T12:20:55;102408.94;;;34.90;26.29
38616;BME280;24370;51.986;4.666;2023-08-21T12:23:21;102413.19;;;34.52;26.72
38616;BME280;24370;51.986;4.666;2023-08-21T12:25:46;102406.84;;;36.41;25.19
38616;BME280;24370;51.986;4.666;2023-08-21T12:28:12;102413.38;;;35.61;25.75
38616;BME280;24370;51.986;4.666;2023-08-21T12:30:37;102411.25;;;35.05;26.74
38616;BME280;24370;51.986;4.666;2023-08-21T12:33:03;102404.94;;;35.45;27.21
38616;BME280;24370;51.986;4.666;2023-08-21T12:35:28;102404.78;;;35.76;25.83
38616;BME280;24370;51.986;4.666;2023-08-21T12:37:56;102411.06;;;36.15;26.06
38616;BME280;24370;51.986;4.666;2023-08-21T12:40:22;102411.84;;;35.18;25.82
38616;BME280;24370;51.986;4.666;2023-08-21T12:42:48;102416.47;;;35.27;25.92
38616;BME280;24370;51.986;4.666;2023-08-21T12:45:13;102421.19;;;33.90;27.71
38616;BME280;24370;51.986;4.666;2023-08-21T12:47:39;102419.56;;;33.67;28.79
38616;BME280;24370;51.986;4.666;2023-08-21T12:50:05;102421.38;;;32.65;30.07
38616;BME280;24370;51.986;4.666;2023-08-21T12:52:31;102416.44;;;35.17;27.71
38616;BME280;24370;51.986;4.666;2023-08-21T12:54:56;102417.97;;;34.70;28.08
38616;BME280;24370;51.986;4.666;2023-08-21T12:57:22;102416.69;;;35.05;27.21
38616;BME280;24370;51.986;4.666;2023-08-21T12:59:47;102405.13;;;34.72;27.95
38616;BME280;24370;51.986;4.666;2023-08-21T13:02:12;102402.47;;;35.52;27.01
38616;BME280;24370;51.986;4.666;2023-08-21T13:04:38;102398.75;;;35.43;26.38
38616;BME280;24370;51.986;4.666;2023-08-21T13:07:04;102398.75;;;35.72;27.38